CST,Max TemperatureF,Mean TemperatureF,Min TemperatureF,Max Dew PointF,MeanDew PointF,Min DewpointF,Max Humidity, Mean Humidity, Min Humidity, Max Sea Level PressureIn, Mean Sea Level PressureIn, Min Sea Level PressureIn, Max VisibilityMiles, Mean VisibilityMiles, Min VisibilityMiles, Max Wind SpeedMPH, Mean Wind SpeedMPH, Max Gust SpeedMPH,PrecipitationIn, CloudCover, Events, WindDirDegrees
2012-11-1,38,35,32,32,27,14,89,66,43,30.00,29.89,29.82,10,10,6,14,8,21,0.01,8,Rain-Snow,308
2012-11-2,39,30,20,22,20,18,84,66,48,30.25,30.13,30.01,10,10,10,13,4,18,0.00,2,,355
2012-11-3,39,30,20,23,21,17,92,72,52,30.31,30.27,30.19,10,10,10,8,2,10,0.00,4,,56
2012-11-4,36,25,13,25,19,11,100,78,56,30.32,30.29,30.22,10,10,8,8,1,13,0.00,2,,64
2012-11-5,32,22,12,25,19,10,92,81,69,30.32,30.24,30.09,10,10,9,6,1,8,0.00,4,,125
2012-11-6,34,31,27,32,29,23,100,88,75,30.06,29.88,29.79,10,4,1,13,5,18,0.06,8,Snow,160
2012-11-7,38,35,31,34,32,30,100,93,85,30.14,30.06,29.93,10,7,2,7,2,9,0.00,8,,229
2012-11-8,48,40,31,34,32,30,96,78,60,30.14,30.07,29.98,10,10,7,17,5,23,T,5,,201
2012-11-9,43,39,35,36,34,30,85,78,70,30.16,30.11,30.05,10,10,10,15,7,21,0.00,8,,63
2012-11-10,55,45,34,51,41,28,100,91,82,30.13,29.86,29.70,10,4,0,20,11,25,0.17,8,Fog-Rain,108
2012-11-11,59,43,27,53,43,23,93,78,62,29.82,29.66,29.60,10,7,2,22,11,29,0.84,8,Rain-Snow,223
2012-11-12,27,23,19,21,14,10,88,78,68,30.24,29.93,29.82,10,6,1,23,13,32,0.02,8,Snow,248
2012-11-13,35,27,19,18,16,14,77,61,44,30.42,30.37,30.26,10,10,10,15,8,21,0.00,4,,230
2012-11-14,40,35,29,29,24,19,85,72,58,30.41,30.33,30.25,10,10,5,14,5,17,T,5,Snow,188
2012-11-15,51,39,27,30,27,20,75,60,44,30.43,30.27,30.21,10,10,10,14,6,18,0.00,1,,216
2012-11-16,41,29,17,30,21,14,88,66,44,30.55,30.49,30.42,10,10,8,9,3,13,0.00,1,,111
2012-11-17,49,42,34,34,33,30,96,76,56,30.47,30.43,30.39,10,5,2,15,8,20,0.00,4,,179
2012-11-18,53,43,33,31,29,28,82,62,41,30.38,30.31,30.24,10,9,5,16,9,22,0.00,2,,168
2012-11-19,55,47,38,39,33,29,76,63,50,30.24,30.16,30.09,10,9,7,13,4,20,0.01,6,,174
2012-11-20,54,41,28,38,32,27,100,77,54,30.17,30.11,30.05,10,4,0,9,1,13,0.00,1,Fog,284
2012-11-21,51,38,25,40,33,25,100,80,59,30.14,30.04,29.87,10,5,0,16,6,23,0.00,0,Fog,206
2012-11-22,60,45,29,40,36,23,85,66,47,29.84,29.67,29.59,10,9,1,26,13,33,0.03,4,Snow,235
2012-11-23,29,24,19,21,17,12,88,78,68,30.22,29.93,29.67,10,5,1,28,15,37,0.08,8,Snow,297
2012-11-24,24,21,18,19,13,10,84,70,55,30.25,30.07,29.84,10,7,1,14,6,20,0.09,6,Snow,224
2012-11-25,25,23,20,20,18,15,92,83,74,30.07,29.85,29.73,10,8,1,18,9,24,0.07,8,Snow,257
2012-11-26,21,12,2,16,7,0,91,76,61,30.39,30.25,30.04,10,10,8,13,6,17,T,4,Snow,278
2012-11-27,28,17,5,20,13,2,87,67,46,30.35,30.19,30.05,10,8,1,17,9,24,0.01,6,Snow,239
2012-11-28,25,22,19,19,14,10,88,74,60,30.32,30.22,30.11,10,10,8,16,8,23,0.00,5,,258
2012-11-29,33,22,11,25,20,10,92,82,72,30.28,30.19,30.09,10,8,2,17,6,21,0.00,4,,68
2012-11-30,29,26,22,28,23,14,100,86,71,30.30,30.23,30.14,10,6,0,16,9,21,T,8,Fog,93